Blountsville, AL (35031)

04:22 PM CDT del 27 Agosto 2015 (GMT -0500)
Palisades Park | | Change Station
CLOSE
Current Station
Stazione meteo personale
Location: Oneonta, AL
Altitudine: 1302 ft
Stazioni meteo nelle vicinanze

Alt. 1302 ft 33.99 °N, 86.46 °W | Updated 8 minutes ago

Parzialmente nuvoloso
Parzialmente nuvoloso
83.6 °F
Sembra 85 °F
N
1.0
Vento Variabile Vento da Est
Gusts 5.0 mph

Oggi
Massima -- | Minima -- °F
--% Possibilità di precip.
Ieri
Massima -- | Minima -- °F
Precip. -- in
6:16 AM 7:19 PM
Gobba a ponente, 95% visible
Pressione 30.05 in
Visibilità 10.0 miglia
Nuvole Nubi sparse 4000 ft
Indice di calore 85 °F
Punto di rugiada 64 °F
Umidità 51%
Piovosità 0.00 in
Spessore del manto nevoso Non disponibile.
Raggi UV 4 fuori da 12
Polline 8.40 fuori da 12
Qualità dell'aria Non disponibile.
Flu Activity Non disponibile.
METAR KCMD 272115Z AUTO 01006KT 10SM SCT040 28/18 A3005 RMK AO2
Pressione 30.05 in
Visibilità 10.0 miglia
Nuvole Nubi sparse 4000 ft
Indice di calore 85 °F
Punto di rugiada 64 °F
Umidità 51%
Piovosità 0.00 in
Spessore del manto nevoso Non disponibile.
Raggi UV 4 fuori da 12
Polline 8.40 fuori da 12
Qualità dell'aria Non disponibile.
Flu Activity Non disponibile.
METAR KCMD 272115Z AUTO 01006KT 10SM SCT040 28/18 A3005 RMK AO2

10-Day Weather Forecast

×

Almanac

Astronomia

Aug. 27, 2015 Alba Tramonto
Ora attuale
Crepuscolo civile
Crepuscolo nautico
Crepuscolo astronomico
Luna
Estensione della luce visibile
Lunghezza del giorno
Tomorrow will be .
, % of the Moon is Illuminated

Gli estremi di oggi

State Highs State Lows

Community

WunderPhotos

Upload Photos

1,850,235 foto caricate!

WunderBlogs® & News

Nearby

Qualità dell'aria

  Qualità dell'aria Indice AQ Inquinante
Not available.

Profondità neve

Stazione Profondità Altitudine

Attività sismica

Città  Distanza Mag. Data & Ora
Minimo Magnitudo Mostrato è 2.5.

Temperature delle acque costiere

Località Temperatura

Stations

Stazioni meteo nelle vicinanze

Ubicazione della stazione Temp. Raffreddamento del vento Punto di rugiada Umidità Vento Precip. Alt. Aggiornato Tipo